MST,Max TemperatureF,Mean TemperatureF,Min TemperatureF,Max Dew PointF,MeanDew PointF,Min DewpointF,Max Humidity, Mean Humidity, Min Humidity, Max Sea Level PressureIn, Mean Sea Level PressureIn, Min Sea Level PressureIn, Max VisibilityMiles, Mean VisibilityMiles, Min VisibilityMiles, Max Wind SpeedMPH, Mean Wind SpeedMPH, Max Gust SpeedMPH,PrecipitationIn, CloudCover, Events, WindDirDegrees
2013-9-1,76,64,52,59,56,51,100,75,50,30.32,30.05,29.95,10,10,10,17,4,21,0.00,2,,223
2013-9-2,78,64,49,56,52,47,100,68,35,30.08,30.02,29.97,10,10,9,15,4,23,T,1,Rain,211
2013-9-3,81,66,50,53,50,45,96,64,32,30.08,30.04,30.00,10,10,10,16,3,18,0.00,2,,172
2013-9-4,81,68,55,55,51,46,80,56,32,30.34,30.06,30.01,10,10,10,18,2,26,0.00,1,,186
2013-9-5,78,64,50,54,49,43,89,60,31,30.13,30.08,30.06,10,10,10,16,2,18,0.00,2,,198
2013-9-6,79,65,51,60,50,45,89,61,32,30.13,30.05,30.00,10,10,10,15,3,18,0.06,3,Rain,247
2013-9-7,75,64,53,57,54,51,100,75,49,30.30,30.06,29.99,10,9,2,13,4,21,0.34,5,Rain-Thunderstorm,199
2013-9-8,63,58,53,57,55,53,100,86,72,30.25,30.05,29.88,10,8,1,14,2,16,0.90,7,Rain-Thunderstorm,160
2013-9-9,58,54,49,55,53,48,100,93,86,30.18,30.01,29.81,10,8,0,9,2,14,1.01,7,Fog-Rain,91
2013-9-10,63,56,48,54,51,48,100,86,72,30.18,30.05,29.86,10,7,0,17,5,23,0.34,7,Fog-Rain,218
2013-9-11,66,56,46,54,51,44,100,76,52,30.28,30.11,29.94,10,9,2,18,6,23,0.34,6,Rain,233
2013-9-12,73,57,40,50,45,39,96,64,31,30.09,30.01,29.95,10,10,10,13,2,16,0.00,1,,135
2013-9-13,75,60,44,51,47,43,93,64,35,29.96,29.88,29.81,10,10,10,13,2,17,0.00,2,,246
2013-9-14,73,59,45,54,49,43,93,69,45,30.11,29.89,29.81,10,10,10,17,4,21,0.03,3,Rain-Thunderstorm,190
2013-9-15,75,60,44,52,47,42,100,67,33,30.00,29.95,29.89,10,10,10,12,1,17,0.02,1,,90
2013-9-16,76,61,45,54,49,43,93,67,40,30.29,30.02,29.96,10,10,10,13,1,18,0.02,2,Rain-Thunderstorm,132
2013-9-17,74,60,46,54,50,45,93,67,41,29.99,29.89,29.81,10,10,10,24,6,30,0.00,0,,209
2013-9-18,74,60,45,49,39,32,93,59,25,29.88,29.83,29.79,10,10,10,30,8,39,0.00,0,,217
2013-9-19,74,57,40,43,39,36,82,54,25,29.96,29.91,29.86,10,10,10,17,3,22,0.00,0,,217
2013-9-20,75,57,39,45,41,38,92,60,27,30.01,29.95,29.92,10,10,10,17,4,23,0.00,1,,218
2013-9-21,72,57,42,50,45,40,89,65,41,29.99,29.88,29.73,10,10,10,25,7,33,0.00,0,,216
2013-9-22,63,51,38,48,32,13,86,50,14,29.88,29.69,29.58,10,10,10,39,14,49,0.00,1,,234
2013-9-23,72,51,30,35,30,27,82,52,22,30.15,29.99,29.88,10,10,10,10,2,14,0.00,0,,155
2013-9-24,71,51,31,36,30,28,89,61,22,30.13,30.07,30.04,10,10,10,20,2,25,0.00,0,,203
2013-9-25,68,56,43,37,33,29,50,37,24,29.81,29.70,29.63,10,10,10,36,17,46,0.00,0,,222
2013-9-26,64,52,39,43,35,28,86,57,27,29.74,29.64,29.57,10,10,6,46,21,64,0.18,2,Rain,219
2013-9-27,58,43,28,32,21,10,76,46,16,30.12,29.92,29.74,10,10,10,13,4,20,0.01,2,,287
2013-9-28,65,45,25,29,23,18,85,51,17,30.23,30.18,30.10,10,10,10,13,3,18,0.00,0,,91
2013-9-29,69,50,30,37,32,24,79,52,24,30.23,30.14,30.07,10,10,10,17,5,23,0.00,0,,215
2013-9-30,72,52,32,32,27,20,76,46,16,30.09,30.02,29.97,10,10,10,16,4,20,0.00,0,,236